Tiempo atmosférico en la estación meteorológica de La Orotava, Cañadas Teide, Santa Cruz de Tenerife (2150 m.)



Fecha
DESCASC
Temp. máxima en grados centígrados (hora)
DESCASC
Temp. mínima en grados centígrados (hora)
DESCASC
Temp. media en grados centígrados
DESCASC
Racha de viento máxima en m/sg (hora)
DESCASC
Velocidad máxima media en intervalos de 10 minutos(hora)
DESCASC
Precipitaciones diarias en mm
DESCASC
Precipitaciones de 00:00 a 06:00 en mm
DESCASC
Precipitaciones de 06:00 a 12:00 en mm
DESCASC
Precipitaciones de 12:00 a 18:00 en mm
DESCASC
Precipitaciones de 18:00 a 24:00 en mm
DESCASC
22-08-2019 28.8 (18:40) 12.5 (04:50) 20.6 11.67 (14:10) 5.28 (15:20) 0 0 0 0 0
21-08-2019 25.4 (15:50) 13.5 (05:10) 19.4 9.17 (14:00) 6.39 (03:50) 0 0 0 0 0
20-08-2019 25.7 (14:00) 16.8 (23:40) 21.3 19.17 (06:20) 13.33 (06:20) 0 0 0 0 0
19-08-2019 27.6 (16:10) 19.5 (23:10) 23.6 16.39 (13:20) 10 (14:20) 0 0 0 0 0
18-08-2019 29.2 (14:30) 17.2 (00:00) 23.2 11.39 (12:30) 6.39 (14:10) 0 0 0 0 0
17-08-2019 29.6 (13:40) 18.3 (00:00) 23.9 12.22 (14:30) 6.11 (12:10) 0 0 0 0 0
16-08-2019 29.8 (15:00) 16.7 (00:00) 23.3 11.11 (15:10) 6.67 (17:20) 0 0 0 0 0
15-08-2019 28.1 (15:20) 10 (00:00) 19.1 10.28 (19:10) 6.11 (19:50) 0 0 0 0 0
14-08-2019 24.7 (15:10) 8.3 (00:00) 16.5 8.06 (16:30) 5 (15:40) 0 0 0 0 0
13-08-2019 25 (15:10) 12.3 (00:00) 18.7 14.72 (00:40) 9.17 (00:10) 0 0 0 0 0
12-08-2019 24.8 (15:30) 13.6 (00:00) 19.2 12.78 (19:40) 8.89 (19:30) 0 0 0 0 0
11-08-2019 27.5 (13:10) 13.6 (00:00) 20.6 14.72 (15:00) 7.78 (14:00) 0 0 0 0 0
10-08-2019 27.5 (14:10) 13.5 (00:00) 20.5 8.61 (14:50) 6.11 (20:00) 0 0 0 0 0
09-08-2019 27.3 (17:50) 16.5 (00:00) 21.9 12.5 (12:40) 7.5 (12:30) 0 0 0 0 0
08-08-2019 27.4 (15:00) 16.2 (00:00) 21.8 9.72 (14:30) 4.72 (17:20) 0 0 0 0 0
07-08-2019 28.9 (14:30) 9.8 (00:00) 19.3 15.28 (13:50) 7.5 (13:50) 0 0 0 0 0
06-08-2019 26.3 (16:20) 7.4 (00:00) 16.8 8.89 (00:10) 6.94 (00:10) 0 0 0 0 0
05-08-2019 23.8 (12:30) 5.9 (00:00) 14.8 9.72 (20:10) 7.5 (20:40) 0 0 0 0 0
04-08-2019 23.3 (11:50) 5.6 (00:00) 14.4 9.72 (14:10) 4.44 (15:00) 0 0 0 0 0
03-08-2019 23 (16:50) 7.9 (00:00) 15.5 8.61 (18:50) 4.72 (14:50) 0 0 0 0 0
02-08-2019 24.3 (17:10) 7.6 (00:00) 15.9 10 (18:10) 4.72 (18:10) 0 0 0 0 0
01-08-2019 24.7 (15:40) 7.7 (00:00) 16.2 8.61 (11:40) 5.28 (11:50) 0 0 0 0 0
31-07-2019 24.2 (13:10) 8.4 (00:00) 16.3 10 (12:10) 6.39 (11:10) 0 0 0 0 0
30-07-2019 25.1 (15:30) 9.1 (00:00) 17.1 12.22 (07:40) 8.33 (07:40) 0 0 0 0 0
29-07-2019 23.1 (14:20) 10.6 (00:00) 16.9 11.94 (20:40) 8.33 (20:30) 0 0 0 0 0
28-07-2019 26.1 (14:00) 12.5 (00:00) 19.3 8.89 (16:10) 5.56 (14:10) 0 0 0 0 0
27-07-2019 27.5 (13:50) 20.3 (00:00) 23.9 14.17 (14:50) 7.78 (17:30) 0 0 0 0 0
26-07-2019 29.3 (13:40) 14.5 (00:00) 21.9 11.94 (15:20) 6.67 (15:20) 0 0 0 0 0

Gráficas

Temp. máximas Temp. mínimas Temp. medias Precipitaciones Rachas de viento máximas Velocidades máximas media en intervalos de 10 minutos

Datos horarios

Fecha y hora oficial Temperatura (ºC) Velocidad del viento (km/h) Dirección del viento Racha (km/h) Dirección de racha Precipitación (mm) Presión (hPa) Tendencia (hPa) Humedad (%)
2019-08-24 23:00:00 21.2 27 Nordeste 40 Norte 0 -- -- 26
2019-08-24 22:00:00 21.2 22 Nordeste 35 Nordeste 0 -- -- 26
2019-08-24 21:00:00 21.6 23 Nordeste 37 Nordeste 0 -- -- 27
2019-08-24 20:00:00 23.5 27 Nordeste 45 Nordeste 0 -- -- 24
2019-08-24 19:00:00 26.6 25 Nordeste 49 Este 0 -- -- 20
2019-08-24 18:00:00 27.2 21 Nordeste 43 Este 0 -- -- 20
2019-08-24 17:00:00 28 19 Este 37 Nordeste 0 -- -- 19
2019-08-24 16:00:00 28.8 17 Nordeste 32 Nordeste 0 -- -- 19
2019-08-24 15:00:00 26.9 13 Nordeste 31 Este 0 -- -- 21
2019-08-24 14:00:00 26.4 16 Este 29 Este 0 -- -- 22
2019-08-24 13:00:00 26.2 5 Este 15 Este 0 -- -- 21
2019-08-24 12:00:00 23.4 12 Este 39 Este 0 -- -- 25
2019-08-24 11:00:00 22.1 23 Este 46 Este 0 -- -- 29
2019-08-24 10:00:00 22.3 13 Este 37 Este 0 -- -- 30
2019-08-24 09:00:00 21.2 12 Este 26 Este 0 -- -- 30
2019-08-24 08:00:00 18.6 13 Nordeste 20 Nordeste 0 -- -- 33
2019-08-24 07:00:00 19 15 Nordeste 34 Nordeste 0 -- -- 28
2019-08-24 06:00:00 20 16 Este 24 Este 0 -- -- 26
2019-08-24 05:00:00 17.8 9 Nordeste 15 Nordeste 0 -- -- 29
2019-08-24 04:00:00 18.4 10 Nordeste 14 Nordeste 0 -- -- 29
2019-08-24 03:00:00 18.5 10 Nordeste 17 Nordeste 0 -- -- 28
2019-08-24 02:00:00 19.5 11 Nordeste 14 Nordeste 0 -- -- 27
2019-08-24 01:00:00 19.5 8 Nordeste 13 Nordeste 0 -- -- 26
2019-08-24 00:00:00 20 8 Nordeste 12 Nordeste 0 -- -- 25
2019-08-23 23:00:00 22 8 Este 14 Este 0 -- -- 23
2019-08-23 22:00:00 22.6 7 Este 16 Este 0 -- -- 22
2019-08-23 21:00:00 23.7 8 Nordeste 22 Este 0 -- -- 21
2019-08-23 20:00:00 24.9 10 Este 28 Nordeste 0 -- -- 20
2019-08-23 19:00:00 25.5 15 Este 36 Este 0 -- -- 20
2019-08-23 18:00:00 27.2 19 Este 36 Este 0 -- -- 18
2019-08-23 17:00:00 28.3 14 Sur 41 Sudeste 0 -- -- 18
2019-08-23 16:00:00 28.3 17 Sudeste 43 Sur 0 -- -- 17
2019-08-23 15:00:00 28.4 20 Sur 42 Sur 0 -- -- 18
2019-08-23 14:00:00 28.5 16 Este 42 Este 0 -- -- 17
2019-08-23 13:00:00 28.8 18 Sudeste 37 Este 0 -- -- 14
2019-08-23 12:00:00 28.1 17 Este 36 Este 0 -- -- 16
2019-08-23 11:00:00 27.3 16 Este 30 Este 0 -- -- 18
2019-08-23 10:00:00 26.4 12 Este 17 Este 0 -- -- 17
2019-08-23 09:00:00 22.6 10 Nordeste 14 Nordeste 0 -- -- 19
2019-08-23 08:00:00 18.2 11 Nordeste 14 Nordeste 0 -- -- 23
2019-08-23 07:00:00 18.6 9 Nordeste 14 Nordeste 0 -- -- 22
2019-08-23 06:00:00 18.3 11 Nordeste 13 Nordeste 0 -- -- 23
2019-08-23 05:00:00 17.3 5 Nordeste 9 Nordeste 0 -- -- 25
2019-08-23 04:00:00 18 0 Calma 9 Este 0 -- -- 26
2019-08-23 03:00:00 19.1 7 Nordeste 12 Nordeste 0 -- -- 25
2019-08-23 02:00:00 18 8 Nordeste 10 Nordeste 0 -- -- 25
2019-08-23 01:00:00 17.9 4 Nordeste 8 Norte 0 -- -- 25
2019-08-23 00:00:00 19.7 6 Nordeste 10 Nordeste 0 -- -- 24
2019-08-22 23:00:00 19.6 5 Nordeste 8 Nordeste 0 -- -- 25
2019-08-22 22:00:00 20.6 6 Nordeste 8 Sudoeste 0 -- -- 24
2019-08-22 21:00:00 23.6 5 Sudoeste 13 Oeste 0 -- -- 22
2019-08-22 20:00:00 25.5 8 Oeste 21 Oeste 0 -- -- 21
2019-08-22 19:00:00 27.9 8 Sudoeste 26 Sudoeste 0 -- -- 19
2019-08-22 18:00:00 28.2 12 Sudoeste 31 Noroeste 0 -- -- 20
2019-08-22 17:00:00 27.7 19 Oeste 33 Oeste 0 -- -- 18
2019-08-22 16:00:00 27.8 15 Oeste 34 Oeste 0 -- -- 19
2019-08-22 15:00:00 27.6 17 Oeste 42 Oeste 0 -- -- 18
2019-08-22 14:00:00 27.6 18 Oeste 31 Noroeste 0 -- -- 17
2019-08-22 13:00:00 27.1 14 Oeste 31 Oeste 0 -- -- 17
2019-08-22 12:00:00 26.4 14 Oeste 32 Noroeste 0 -- -- 17
2019-08-22 11:00:00 25.5 13 Oeste 28 Oeste 0 -- -- 18
2019-08-22 10:00:00 24.6 7 Sudoeste 15 Sudoeste 0 -- -- 15
2019-08-22 09:00:00 21.4 5 Sur 15 Oeste 0 -- -- 17
2019-08-22 08:00:00 18.2 4 Sudoeste 15 Oeste 0 -- -- 17
2019-08-22 07:00:00 16.4 0 Calma 7 Noroeste 0 -- -- 16
2019-08-22 06:00:00 15.6 0 Calma 4 Norte 0 -- -- 17
2019-08-22 05:00:00 14 3 Nordeste 10 Noroeste 0 -- -- 16
2019-08-22 04:00:00 13.2 4 Nordeste 9 Este 0 -- -- 15
2019-08-22 03:00:00 15.6 10 Este 21 Este 0 -- -- 13
2019-08-22 02:00:00 16.6 18 Este 25 Este 0 -- -- 15
2019-08-22 01:00:00 16.4 16 Este 25 Este 0 -- -- 19
2019-08-22 00:00:00 16.2 17 Este 27 Este 0 -- -- 24
2019-08-21 23:00:00 16.5 16 Este 30 Este 0 -- -- 25
2019-08-21 22:00:00 17.7 19 Este 25 Este 0 -- -- 23
2019-08-21 21:00:00 18.6 18 Este 26 Nordeste 0 -- -- 26
2019-08-21 20:00:00 21.3 18 Nordeste 24 Nordeste 0 -- -- 22
2019-08-21 19:00:00 23.9 10 Este 21 Nordeste 0 -- -- 27
2019-08-21 18:00:00 24.9 5 Sudeste 22 Este 0 -- -- 34
2019-08-21 17:00:00 24.4 14 Este 31 Sudeste 0 -- -- 30
2019-08-21 16:00:00 24.9 12 Este 27 Este 0 -- -- 30
2019-08-21 15:00:00 24.2 7 Sudeste 31 Sur 0 -- -- 32
2019-08-21 14:00:00 25.3 18 Sudoeste 33 Sudoeste 0 -- -- 32
2019-08-21 13:00:00 24.6 14 Este 28 Este 0 -- -- 32
2019-08-21 12:00:00 23.8 10 Nordeste 27 Este 0 -- -- 32
2019-08-21 11:00:00 22.2 14 Este 21 Este 0 -- -- 35
2019-08-21 10:00:00 18.9 21 Este 28 Este 0 -- -- 37
2019-08-21 09:00:00 17 20 Este 31 Este 0 -- -- 36
2019-08-21 08:00:00 14.8 9 Este 30 Este 0 -- -- 50
2019-08-21 07:00:00 15.1 18 Este 30 Este 0 -- -- 46
2019-08-21 06:00:00 14 5 Sudeste 23 Nordeste 0 -- -- 54
2019-08-21 05:00:00 14.7 13 Nordeste 29 Este 0 -- -- 53
2019-08-21 04:00:00 15.4 20 Este 31 Este 0 -- -- 59
2019-08-21 03:00:00 14.5 12 Nordeste 24 Este 0 -- -- 60
2019-08-21 02:00:00 15.8 3 Sudoeste 25 Sudeste 0 -- -- 48
2019-08-21 01:00:00 16.7 16 Este 30 Este 0 -- -- 44
2019-08-21 00:00:00 16.9 14 Este 49 Este 0 -- -- 29
2019-08-20 23:00:00 16.9 33 Este 53 Este 0 -- -- 16
2019-08-20 22:00:00 17 35 Este 49 Este 0 -- -- 16
2019-08-20 21:00:00 17.4 16 Este 41 Este 0 -- -- 17
2019-08-20 20:00:00 19.4 28 Este 41 Este 0 -- -- 15
2019-08-20 19:00:00 21.7 28 Este 44 Este 0 -- -- 14
2019-08-20 18:00:00 23.3 20 Sudeste 36 Sudeste 0 -- -- 13
2019-08-20 17:00:00 23.3 10 Sur 45 Sudeste 0 -- -- 19
2019-08-20 16:00:00 24.2 22 Sudeste 57 Sur 0 -- -- 16
2019-08-20 15:00:00 24.9 29 Sur 54 Sur 0 -- -- 14
2019-08-20 14:00:00 25.7 20 Sudeste 49 Este 0 -- -- 11
2019-08-20 13:00:00 24.6 15 Sudoeste 29 Sudoeste 0 -- -- 13
2019-08-20 12:00:00 25.4 16 Sudoeste 29 Sur 0 -- -- 9
2019-08-20 11:00:00 23.7 16 Sudoeste 24 Sudoeste 0 -- -- 10
2019-08-20 10:00:00 22.4 7 Sur 17 Sudeste 0 -- -- 10
2019-08-20 09:00:00 19.1 7 Sudoeste 29 Sudeste 0 -- -- 14
2019-08-20 08:00:00 18.6 22 Sur 44 Sur 0 -- -- 15
2019-08-20 07:00:00 18.9 15 Norte 69 Norte 0 -- -- 12
2019-08-20 06:00:00 19.4 44 Norte 68 Norte 0 -- -- 14
2019-08-20 05:00:00 19.9 40 Norte 60 Norte 0 -- -- 16
2019-08-20 04:00:00 19.5 24 Norte 45 Norte 0 -- -- 17
2019-08-20 03:00:00 20 29 Norte 52 Norte 0 -- -- 17
2019-08-20 02:00:00 20 30 Norte 51 Norte 0 -- -- 17
2019-08-20 01:00:00 20 28 Nordeste 47 Nordeste 0 -- -- 16
2019-08-20 00:00:00 19.8 17 Norte 32 Norte 0 -- -- 20
2019-08-19 23:00:00 19.8 8 Nordeste 35 Norte 0 -- -- 19
2019-08-19 22:00:00 20.7 17 Nordeste 39 Este 0 -- -- 18
2019-08-19 21:00:00 20.4 17 Este 44 Nordeste 0 -- -- 23
2019-08-19 20:00:00 23.1 23 Nordeste 54 Nordeste 0 -- -- 16
2019-08-19 19:00:00 24.7 24 Nordeste 41 Nordeste 0 -- -- 14
2019-08-19 18:00:00 26.9 15 Nordeste 49 Norte 0 -- -- 14
2019-08-19 17:00:00 27 17 Norte 56 Norte 0 -- -- 14
2019-08-19 16:00:00 27 22 Nordeste 49 Norte 0 -- -- 14
2019-08-19 15:00:00 27.5 26 Norte 59 Nordeste 0 -- -- 13
2019-08-19 14:00:00 26.6 32 Norte 59 Norte 0 -- -- 13
2019-08-19 13:00:00 26.7 28 Norte 53 Nordeste 0 -- -- 13
2019-08-19 12:00:00 26.1 29 Norte 54 Norte 0 -- -- 14
2019-08-19 11:00:00 25.3 31 Nordeste 54 Nordeste 0 -- -- 14
2019-08-19 10:00:00 24.2 30 Nordeste 49 Norte 0 -- -- 15
2019-08-19 09:00:00 22.6 28 Nordeste 45 Nordeste 0 -- -- 16
2019-08-19 08:00:00 20.2 20 Nordeste 37 Nordeste 0 -- -- 18
2019-08-19 07:00:00 20.1 19 Nordeste 34 Norte 0 -- -- 19
2019-08-19 06:00:00 20.4 23 Nordeste 36 Norte 0 -- -- 19
2019-08-19 05:00:00 20.1 20 Nordeste 31 Norte 0 -- -- 20
2019-08-19 04:00:00 20 19 Nordeste 33 Nordeste 0 -- -- 21
2019-08-19 03:00:00 20.4 21 Nordeste 31 Nordeste 0 -- -- 23
2019-08-19 02:00:00 20.5 19 Nordeste 30 Nordeste 0 -- -- 21
2019-08-19 01:00:00 20.4 19 Este 30 Este 0 -- -- 20
2019-08-19 00:00:00 20 18 Nordeste 30 Nordeste 0 -- -- 19
2019-08-18 23:00:00 20.7 18 Nordeste 26 Nordeste 0 -- -- 19
2019-08-18 22:00:00 21.1 17 Nordeste 23 Nordeste 0 -- -- 18
2019-08-18 21:00:00 22 16 Nordeste 26 Nordeste 0 -- -- 18
2019-08-18 20:00:00 24.6 15 Nordeste 32 Este 0 -- -- 18
2019-08-18 19:00:00 26.6 17 Este 31 Este 0 -- -- 16
2019-08-18 18:00:00 27.6 16 Este 29 Este 0 -- -- 16
2019-08-18 17:00:00 25.5 16 Nordeste 32 Norte 0 -- -- 18
2019-08-18 16:00:00 26.7 21 Este 37 Este 0 -- -- 16
2019-08-18 15:00:00 28.2 19 Este 38 Este 0 -- -- 15
2019-08-18 14:00:00 29.1 19 Este 37 Este 0 -- -- 13
2019-08-18 13:00:00 28.2 22 Nordeste 41 Este 0 -- -- 14
2019-08-18 12:00:00 28.3 18 Nordeste 34 Nordeste 0 -- -- 14
2019-08-18 11:00:00 27 21 Nordeste 33 Nordeste 0 -- -- 15
2019-08-18 10:00:00 25.5 18 Nordeste 27 Nordeste 0 -- -- 15
2019-08-18 09:00:00 22.3 13 Nordeste 19 Nordeste 0 -- -- 17
2019-08-18 08:00:00 18.1 15 Nordeste 19 Nordeste 0 -- -- 21
2019-08-18 07:00:00 17.6 13 Nordeste 22 Nordeste 0 -- -- 22
2019-08-18 06:00:00 18.8 14 Nordeste 23 Nordeste 0 -- -- 23
2019-08-18 05:00:00 19 16 Nordeste 22 Nordeste 0 -- -- 23
2019-08-18 04:00:00 19.2 15 Este 20 Nordeste 0 -- -- 22
2019-08-18 03:00:00 19.8 15 Este 26 Este 0 -- -- 23
2019-08-18 02:00:00 19.8 17 Este 21 Este 0 -- -- 23
2019-08-18 01:00:00 19.5 15 Nordeste 20 Este 0 -- -- 24
2019-08-18 00:00:00 20.4 16 Nordeste 21 Este 0 -- -- 23
2019-08-17 23:00:00 20.7 14 Nordeste 18 Este 0 -- -- 23
2019-08-17 22:00:00 21.5 11 Este 18 Nordeste 0 -- -- 22
2019-08-17 21:00:00 22.6 10 Nordeste 18 Nordeste 0 -- -- 21
2019-08-17 20:00:00 24.4 14 Este 26 Este 0 -- -- 19
2019-08-17 19:00:00 27.3 14 Nordeste 34 Nordeste 0 -- -- 17
2019-08-17 18:00:00 27.2 17 Nordeste 38 Este 0 -- -- 17
2019-08-17 17:00:00 29 20 Nordeste 40 Este 0 -- -- 16
2019-08-17 16:00:00 29.1 21 Este 40 Este 0 -- -- 15
2019-08-17 15:00:00 28.3 17 Nordeste 44 Nordeste 0 -- -- 16
2019-08-17 14:00:00 29.2 18 Nordeste 42 Este 0 -- -- 17
2019-08-17 13:00:00 28.4 22 Nordeste 38 Este 0 -- -- 17
2019-08-17 12:00:00 28.3 20 Nordeste 35 Nordeste 0 -- -- 18
2019-08-17 11:00:00 27.2 17 Nordeste 32 Nordeste 0 -- -- 19
2019-08-17 10:00:00 25.1 19 Nordeste 29 Nordeste 0 -- -- 21
2019-08-17 09:00:00 21.9 13 Este 18 Este 0 -- -- 25
2019-08-17 08:00:00 18.3 14 Este 19 Este 0 -- -- 29
2019-08-17 07:00:00 18.8 14 Este 18 Este 0 -- -- 29
2019-08-17 06:00:00 19.1 13 Este 16 Este 0 -- -- 29
2019-08-17 05:00:00 19.4 13 Nordeste 16 Este 0 -- -- 29
2019-08-17 04:00:00 19.2 13 Nordeste 17 Nordeste 0 -- -- 30
2019-08-17 03:00:00 19.3 12 Nordeste 15 Nordeste 0 -- -- 30
2019-08-17 02:00:00 20.3 12 Nordeste 16 Nordeste 0 -- -- 29
2019-08-17 01:00:00 20.7 14 Nordeste 17 Nordeste 0 -- -- 28
2019-08-17 00:00:00 20.7 11 Nordeste 16 Nordeste 0 -- -- 29
2019-08-16 23:00:00 20.8 10 Nordeste 17 Nordeste 0 -- -- 29
2019-08-16 22:00:00 21.9 11 Nordeste 18 Nordeste 0 -- -- 27
2019-08-16 21:00:00 22.9 12 Nordeste 21 Este 0 -- -- 26
2019-08-16 20:00:00 25.5 12 Este 27 Este 0 -- -- 23
2019-08-16 19:00:00 27.4 13 Este 32 Nordeste 0 -- -- 21
2019-08-16 18:00:00 28.4 12 Este 40 Este 0 -- -- 20
2019-08-16 17:00:00 28 20 Sudeste 39 Este 0 -- -- 21
2019-08-16 16:00:00 28.8 21 Sudeste 40 Este 0 -- -- 20
2019-08-16 15:00:00 29.8 12 Sudeste 37 Este 0 -- -- 18
2019-08-16 14:00:00 28.6 16 Sudeste 36 Este 0 -- -- 17
2019-08-16 13:00:00 27.6 16 Este 36 Este 0 -- -- 17
2019-08-16 12:00:00 28 16 Este 33 Este 0 -- -- 16
2019-08-16 11:00:00 27.3 17 Este 26 Nordeste 0 -- -- 15
2019-08-16 10:00:00 24.8 14 Nordeste 22 Nordeste 0 -- -- 15
2019-08-16 09:00:00 23.4 11 Nordeste 14 Este 0 -- -- 19
2019-08-16 08:00:00 17.7 9 Nordeste 13 Nordeste 0 -- -- 26
2019-08-16 07:00:00 17.2 8 Norte 10 Nordeste 0 -- -- 23
2019-08-16 06:00:00 17.4 8 Norte 10 Norte 0 -- -- 21
2019-08-16 05:00:00 17.4 5 Norte 9 Norte 0 -- -- 21
2019-08-16 04:00:00 17.7 5 Norte 9 Nordeste 0 -- -- 20
2019-08-16 03:00:00 20.9 2 Sudoeste 14 Sur 0 -- -- 17
2019-08-16 02:00:00 21.6 6 Sur 13 Sur 0 -- -- 16
2019-08-16 01:00:00 19.6 3 Norte 16 Sur 0 -- -- 14
2019-08-16 00:00:00 21 6 Oeste 24 Sur 0 -- -- 11
2019-08-15 23:00:00 21.7 4 Sur 21 Sur 0 -- -- 11
2019-08-15 22:00:00 22.3 15 Sur 32 Sur 0 -- -- 9
2019-08-15 21:00:00 22.8 12 Sur 27 Sur 0 -- -- 9
2019-08-15 20:00:00 24 22 Sur 37 Sudeste 0 -- -- 9
2019-08-15 19:00:00 25.7 18 Sur 36 Sur 0 -- -- 10
2019-08-15 18:00:00 25.8 15 Sur 34 Sudoeste 0 -- -- 11
2019-08-15 17:00:00 26.6 15 Sudoeste 36 Sur 0 -- -- 12
2019-08-15 16:00:00 27.3 14 Sur 33 Sudoeste 0 -- -- 12
2019-08-15 15:00:00 26.7 12 Sudoeste 27 Sudoeste 0 -- -- 12
2019-08-15 14:00:00 26.6 15 Sur 30 Sur 0 -- -- 14
2019-08-15 13:00:00 26.5 12 Sur 28 Sur 0 -- -- 16
2019-08-15 12:00:00 26 12 Sur 28 Sur 0 -- -- 16
2019-08-15 11:00:00 24.4 9 Sur 25 Sudoeste 0 -- -- 18
2019-08-15 10:00:00 23.4 8 Sur 18 Sur 0 -- -- 23
2019-08-15 09:00:00 19.8 3 Este 5 Norte 0 -- -- 27
2019-08-15 08:00:00 13.7 5 Norte 8 Norte 0 -- -- 36
2019-08-15 07:00:00 14.2 5 Norte 6 Norte 0 -- -- 37
2019-08-15 06:00:00 13.6 6 Nordeste 9 Nordeste 0 -- -- 40
2019-08-15 05:00:00 10.9 4 Norte 9 Norte 0 -- -- 41
2019-08-15 04:00:00 11.8 2 Nordeste 11 Norte 0 -- -- 39
2019-08-15 03:00:00 12.6 5 Norte 8 Norte 0 -- -- 36
2019-08-15 02:00:00 13.1 3 Nordeste 14 Nordeste 0 -- -- 34
2019-08-15 01:00:00 11.4 10 Norte 14 Norte 0 -- -- 43
2019-08-15 00:00:00 10 7 Norte 12 Norte 0 -- -- 46
2019-08-14 23:00:00 12.2 3 Norte 10 Norte 0 -- -- 41
2019-08-14 22:00:00 16.4 4 Sur 10 Oeste 0 -- -- 40
2019-08-14 21:00:00 17.5 7 Oeste 23 Sur 0 -- -- 40
2019-08-14 20:00:00 20.8 9 Sudoeste 21 Oeste 0 -- -- 36
2019-08-14 19:00:00 21.7 10 Oeste 23 Sur 0 -- -- 36
2019-08-14 18:00:00 22.1 15 Sur 27 Sur 0 -- -- 28
2019-08-14 17:00:00 22.7 14 Sur 29 Sur 0 -- -- 21
2019-08-14 16:00:00 23.3 17 Sur 28 Sur 0 -- -- 32
2019-08-14 15:00:00 23.7 17 Sur 27 Sur 0 -- -- 30
2019-08-14 14:00:00 23.3 16 Sur 28 Sur 0 -- -- 27
2019-08-14 13:00:00 23.5 14 Sur 23 Sur 0 -- -- 26
2019-08-14 12:00:00 22.3 10 Sur 19 Sur 0 -- -- 21
2019-08-14 11:00:00 21.6 8 Sur 14 Sur 0 -- -- 21
2019-08-14 10:00:00 19.6 5 Sudeste 10 Sudeste 0 -- -- 27
2019-08-14 09:00:00 15.4 3 Norte 6 Norte 0 -- -- 37
2019-08-14 08:00:00 9.3 5 Nordeste 13 Norte 0 -- -- 45
2019-08-14 07:00:00 10.5 8 Nordeste 10 Nordeste 0 -- -- 49
2019-08-14 06:00:00 9.6 9 Nordeste 11 Norte 0 -- -- 48
2019-08-14 05:00:00 10.3 6 Norte 9 Norte 0 -- -- 50
2019-08-14 04:00:00 12.2 4 Nordeste 8 Nordeste 0 -- -- 50
2019-08-14 03:00:00 11.6 6 Nordeste 9 Norte 0 -- -- 53
2019-08-14 02:00:00 12.4 6 Nordeste 11 Norte 0 -- -- 58
2019-08-14 01:00:00 10.8 5 Norte 9 Norte 0 -- -- 65
2019-08-14 00:00:00 12.8 5 Nordeste 13 Este 0 -- -- 61
2019-08-13 23:00:00 14.8 11 Este 18 Este 0 -- -- 56
2019-08-13 22:00:00 15.1 13 Este 25 Este 0 -- -- 58
2019-08-13 21:00:00 16.1 17 Este 30 Este 0 -- -- 54
2019-08-13 20:00:00 19.3 20 Este 30 Este 0 -- -- 45
2019-08-13 19:00:00 21.3 20 Este 31 Este 0 -- -- 36
2019-08-13 18:00:00 22.9 13 Este 28 Este 0 -- -- 35
2019-08-13 17:00:00 23.4 10 Sudeste 27 Noroeste 0 -- -- 37
2019-08-13 16:00:00 23.5 11 Oeste 33 Sudoeste 0 -- -- 34
2019-08-13 15:00:00 24.4 11 Sudoeste 29 Sur 0 -- -- 33
2019-08-13 14:00:00 23.4 8 Sudoeste 23 Sudoeste 0 -- -- 32
2019-08-13 13:00:00 23.4 10 Sudeste 32 Sudeste 0 -- -- 30
2019-08-13 12:00:00 22.6 15 Sudeste 30 Este 0 -- -- 31
2019-08-13 11:00:00 20.7 15 Este 26 Este 0 -- -- 35
2019-08-13 10:00:00 18.6 20 Este 30 Este 0 -- -- 40
2019-08-13 09:00:00 16.9 16 Este 25 Este 0 -- -- 46
2019-08-13 08:00:00 14.6 17 Este 29 Este 0 -- -- 50
2019-08-13 07:00:00 14.5 21 Este 31 Este 0 -- -- 51
2019-08-13 06:00:00 14.7 20 Este 29 Este 0 -- -- 49
2019-08-13 05:00:00 15 17 Este 31 Este 0 -- -- 45
2019-08-13 04:00:00 15.3 17 Este 39 Este 0 -- -- 44
2019-08-13 03:00:00 15.1 18 Este 33 Este 0 -- -- 45
2019-08-13 02:00:00 15 18 Este 46 Sudeste 0 -- -- 45
2019-08-13 01:00:00 15.2 27 Este 53 Este 0 -- -- 49
2019-08-13 00:00:00 15.7 31 Este 45 Este 0 -- -- 43
2019-08-12 23:00:00 15.9 29 Nordeste 45 Este 0 -- -- 44
2019-08-12 22:00:00 16.3 27 Nordeste 44 Este 0 -- -- 43
2019-08-12 21:00:00 16.4 26 Este 46 Este 0 -- -- 44
2019-08-12 20:00:00 18.3 32 Sudeste 46 Sudeste 0 -- -- 37
2019-08-12 19:00:00 21.8 28 Este 45 Este 0 -- -- 29
2019-08-12 18:00:00 23.7 16 Nordeste 35 Nordeste 0 -- -- 24
2019-08-12 17:00:00 23.5 18 Nordeste 35 Nordeste 0 -- -- 25
2019-08-12 16:00:00 23.6 21 Norte 37 Norte 0 -- -- 24
2019-08-12 15:00:00 24 24 Nordeste 39 Nordeste 0 -- -- 24
2019-08-12 14:00:00 24.2 21 Nordeste 44 Este 0 -- -- 24
2019-08-12 13:00:00 23.7 26 Nordeste 43 Norte 0 -- -- 24
2019-08-12 12:00:00 23.3 23 Este 38 Este 0 -- -- 24
2019-08-12 11:00:00 22.1 22 Nordeste 36 Este 0 -- -- 25
2019-08-12 10:00:00 20.3 20 Nordeste 28 Este 0 -- -- 34
2019-08-12 09:00:00 17.7 15 Nordeste 22 Nordeste 0 -- -- 41
2019-08-12 08:00:00 14 17 Este 22 Nordeste 0 -- -- 51
2019-08-12 07:00:00 14.2 14 Nordeste 27 Este 0 -- -- 51
2019-08-12 06:00:00 15.1 21 Este 32 Este 0 -- -- 48
2019-08-12 05:00:00 15.1 16 Este 31 Este 0 -- -- 49
2019-08-12 04:00:00 15 24 Este 34 Este 0 -- -- 50
2019-08-12 03:00:00 15.4 22 Este 33 Este 0 -- -- 48
2019-08-12 02:00:00 15.7 27 Este 37 Este 0 -- -- 48
2019-08-12 01:00:00 15.6 22 Este 34 Sudeste 0 -- -- 51
2019-08-12 00:00:00 15.8 22 Este 36 Este 0 -- -- 50
2019-08-11 23:00:00 16.6 26 Este 36 Este 0 -- -- 47
2019-08-11 22:00:00 17.6 17 Este 29 Este 0 -- -- 43
2019-08-11 21:00:00 20.2 3 Noroeste 22 Sur 0 -- -- 30
2019-08-11 20:00:00 23.8 12 Sur 25 Sudoeste 0 -- -- 25
2019-08-11 19:00:00 24.1 14 Sudeste 28 Sur 0 -- -- 27
2019-08-11 18:00:00 25.1 16 Sur 33 Sur 0 -- -- 25
2019-08-11 17:00:00 26 19 Sur 32 Sur 0 -- -- 24
2019-08-11 16:00:00 24.8 18 Sur 41 Sur 0 -- -- 28
2019-08-11 15:00:00 26.7 24 Este 53 Este 0 -- -- 16
2019-08-11 14:00:00 26.7 28 Nordeste 42 Este 0 -- -- 12
2019-08-11 13:00:00 26.1 13 Sudeste 36 Noroeste 0 -- -- 14
2019-08-11 12:00:00 24.7 15 Noroeste 46 Norte 0 -- -- 10
2019-08-11 11:00:00 23.8 18 Noroeste 35 Norte 0 -- -- 16
2019-08-11 10:00:00 23.1 9 Noroeste 35 Noroeste 0 -- -- 15
2019-08-11 09:00:00 19.7 16 Este 23 Este 0 -- -- 16
2019-08-11 08:00:00 15.7 4 Nordeste 17 Este 0 -- -- 20
2019-08-11 07:00:00 16.1 8 Este 13 Este 0 -- -- 21
2019-08-11 06:00:00 17.7 6 Sudeste 15 Sudeste 0 -- -- 25
2019-08-11 05:00:00 15.5 10 Este 16 Este 0 -- -- 27
2019-08-11 04:00:00 14.3 4 Nordeste 12 Norte 0 -- -- 30
2019-08-11 03:00:00 13.6 6 Norte 12 Norte 0 -- -- 36
2019-08-11 02:00:00 14.4 8 Norte 13 Norte 0 -- -- 35
2019-08-11 01:00:00 14.8 7 Norte 14 Norte 0 -- -- 43
2019-08-11 00:00:00 18.1 12 Este 19 Este 0 -- -- 41
2019-08-10 23:00:00 17.9 12 Nordeste 22 Este 0 -- -- 51
2019-08-10 22:00:00 18.7 15 Este 27 Este 0 -- -- 51
2019-08-10 21:00:00 19.8 14 Este 29 Este 0 -- -- 47
2019-08-10 20:00:00 22.4 22 Este 30 Este 0 -- -- 40
2019-08-10 19:00:00 23.7 13 Este 26 Sudeste 0 -- -- 38
2019-08-10 18:00:00 22.6 9 Este 28 Este 0 -- -- 42
2019-08-10 17:00:00 23.3 11 Sudeste 26 Este 0 -- -- 44
2019-08-10 16:00:00 23.8 6 Sur 25 Este 0 -- -- 42
2019-08-10 15:00:00 25.6 14 Sur 31 Sur 0 -- -- 40
2019-08-10 14:00:00 26.9 16 Sur 28 Sur 0 -- -- 36
2019-08-10 13:00:00 27.2 11 Sur 25 Sudoeste 0 -- -- 35
2019-08-10 12:00:00 25.5 12 Sudoeste 20 Oeste 0 -- -- 31
2019-08-10 11:00:00 24.7 11 Sur 15 Sur 0 -- -- 34
2019-08-10 10:00:00 22.6 12 Este 15 Este 0 -- -- 42
2019-08-10 09:00:00 19.4 10 Este 15 Este 0 -- -- 52
2019-08-10 08:00:00 15.3 10 Nordeste 15 Nordeste 0 -- -- 61
2019-08-10 07:00:00 15.4 12 Nordeste 15 Este 0 -- -- 62
2019-08-10 06:00:00 14.8 10 Este 14 Este 0 -- -- 53
2019-08-10 05:00:00 14.8 5 Este 15 Este 0 -- -- 51
2019-08-10 04:00:00 15 10 Nordeste 14 Este 0 -- -- 64
2019-08-10 03:00:00 14.8 5 Norte 10 Norte 0 -- -- 59
2019-08-10 02:00:00 15.3 6 Nordeste 9 Este 0 -- -- 56
2019-08-10 01:00:00 15.6 5 Nordeste 6 Norte 0 -- -- 54
2019-08-10 00:00:00 16.9 4 Nordeste 9 Nordeste 0 -- -- 49
2019-08-09 23:00:00 18.3 7 Este 16 Este 0 -- -- 48
2019-08-09 22:00:00 19.1 11 Este 17 Este 0 -- -- 40
2019-08-09 21:00:00 21.6 7 Sudoeste 26 Sur 0 -- -- 45
2019-08-09 20:00:00 23.9 10 Oeste 29 Sudoeste 0 -- -- 37
2019-08-09 19:00:00 24.8 10 Sudoeste 32 Sudoeste 0 -- -- 33
2019-08-09 18:00:00 25.9 14 Oeste 31 Noroeste 0 -- -- 29
2019-08-09 17:00:00 25.6 15 Oeste 34 Oeste 0 -- -- 32
2019-08-09 16:00:00 25.9 17 Oeste 33 Oeste 0 -- -- 33
2019-08-09 15:00:00 26.6 15 Sudoeste 37 Sur 0 -- -- 30
2019-08-09 14:00:00 25.3 17 Oeste 34 Oeste 0 -- -- 35
2019-08-09 13:00:00 25.5 13 Sudoeste 45 Sudoeste 0 -- -- 36
2019-08-09 12:00:00 24.9 9 Sudoeste 28 Oeste 0 -- -- 40
2019-08-09 11:00:00 22.5 10 Sudoeste 29 Sudoeste 0 -- -- 46
2019-08-09 10:00:00 20.5 14 Oeste 32 Noroeste 0 -- -- 52
2019-08-09 09:00:00 19.6 9 Oeste 27 Oeste 0 -- -- 56
2019-08-09 08:00:00 18.4 15 Oeste 33 Oeste 0 -- -- 60
2019-08-09 07:00:00 17.9 8 Sudoeste 18 Oeste 0 -- -- 54
2019-08-09 06:00:00 17.7 12 Sur 19 Sur 0 -- -- 51
2019-08-09 05:00:00 18.1 12 Sur 19 Sur 0 -- -- 49
2019-08-09 04:00:00 18.6 12 Sur 23 Sudoeste 0 -- -- 49
2019-08-09 03:00:00 18.9 9 Sur 16 Sur 0 -- -- 43
2019-08-09 02:00:00 19.1 7 Sur 15 Sur 0 -- -- 37
2019-08-09 01:00:00 19.9 9 Sur 19 Sur 0 -- -- 35
2019-08-09 00:00:00 20.1 10 Sudoeste 21 Sur 0 -- -- 35
2019-08-08 23:00:00 19.9 8 Sudoeste 20 Sur 0 -- -- 35
2019-08-08 22:00:00 20.4 10 Sudoeste 21 Oeste 0 -- -- 35
2019-08-08 21:00:00 20.9 10 Sudoeste 27 Oeste 0 -- -- 35
2019-08-08 20:00:00 23.1 11 Sudoeste 25 Oeste 0 -- -- 30
2019-08-08 19:00:00 24.6 11 Sudoeste 26 Oeste 0 -- -- 23
2019-08-08 18:00:00 24.9 16 Oeste 30 Sudoeste 0 -- -- 20
2019-08-08 17:00:00 25.9 12 Oeste 30 Oeste 0 -- -- 17
2019-08-08 16:00:00 26.3 16 Oeste 30 Oeste 0 -- -- 16
2019-08-08 15:00:00 27.4 14 Oeste 35 Oeste 0 -- -- 16
2019-08-08 14:00:00 26.7 15 Oeste 27 Oeste 0 -- -- 16
2019-08-08 13:00:00 26.7 15 Oeste 26 Oeste 0 -- -- 14
2019-08-08 12:00:00 25.6 13 Oeste 28 Oeste 0 -- -- 14
2019-08-08 11:00:00 24.7 9 Sudoeste 29 Sudoeste 0 -- -- 15
2019-08-08 10:00:00 22.1 7 Oeste 14 Oeste 0 -- -- 14
2019-08-08 09:00:00 20.7 4 Sur 10 Oeste 0 -- -- 15
2019-08-08 08:00:00 16.9 4 Sudoeste 6 Sudoeste 0 -- -- 17
2019-08-08 07:00:00 18.2 4 Sudoeste 10 Sur 0 -- -- 15
2019-08-08 06:00:00 17.9 0 Calma 8 Oeste 0 -- -- 14
2019-08-08 05:00:00 17.2 4 Oeste 12 Sudeste 0 -- -- 14
2019-08-08 04:00:00 16.7 4 Nordeste 8 Nordeste 0 -- -- 12
2019-08-08 03:00:00 18.8 4 Noroeste 10 Oeste 0 -- -- 10
2019-08-08 02:00:00 18.7 3 Noroeste 11 Oeste 0 -- -- 8
2019-08-08 01:00:00 19.5 4 Oeste 10 Sudoeste 0 -- -- 8
2019-08-08 00:00:00 20 5 Oeste 10 Oeste 0 -- -- 8
2019-08-07 23:00:00 20.3 6 Oeste 16 Sudoeste 0 -- -- 7
2019-08-07 22:00:00 20.9 9 Sudoeste 21 Sudoeste 0 -- -- 8
2019-08-07 21:00:00 21.7 10 Sudoeste 33 Sudoeste 0 -- -- 7
2019-08-07 20:00:00 23.8 19 Sudoeste 32 Sudoeste 0 -- -- 7
2019-08-07 19:00:00 25.9 12 Sudoeste 33 Oeste 0 -- -- 8
2019-08-07 18:00:00 26 17 Oeste 44 Sudoeste 0 -- -- 9
2019-08-07 17:00:00 26.9 15 Oeste 39 Sudoeste 0 -- -- 10
2019-08-07 16:00:00 26 23 Oeste 47 Oeste 0 -- -- 12
2019-08-07 15:00:00 27.5 25 Sur 46 Sur 0 -- -- 10
2019-08-07 14:00:00 28.1 24 Sudoeste 55 Sur 0 -- -- 9
2019-08-07 13:00:00 26.5 21 Sudoeste 47 Sudoeste 0 -- -- 9
2019-08-07 12:00:00 25.3 23 Sudoeste 45 Sudoeste 0 -- -- 7
2019-08-07 11:00:00 24.1 7 Oeste 18 Sudoeste 0 -- -- 5
2019-08-07 10:00:00 22.5 8 Sur 14 Sur 0 -- -- 5
2019-08-07 09:00:00 19.7 3 Nordeste 7 Norte 0 -- -- 5
2019-08-07 08:00:00 14.4 6 Norte 9 Norte 0 -- -- 7
2019-08-07 07:00:00 14.1 5 Nordeste 12 Norte 0 -- -- 7
2019-08-07 06:00:00 12.2 7 Norte 10 Norte 0 -- -- 8
2019-08-07 05:00:00 11.6 9 Nordeste 12 Nordeste 0 -- -- 7
2019-08-07 04:00:00 11.3 8 Nordeste 12 Norte 0 -- -- 9
2019-08-07 03:00:00 12.5 10 Nordeste 13 Nordeste 0 -- -- 10
2019-08-07 02:00:00 12.4 2 Norte 9 Nordeste 0 -- -- 11
2019-08-07 01:00:00 12.3 6 Norte 10 Norte 0 -- -- 12
2019-08-07 00:00:00 15 4 Nordeste 15 Este 0 -- -- 8
2019-08-06 23:00:00 15.3 11 Este 14 Este 0 -- -- 11
2019-08-06 22:00:00 17.1 10 Nordeste 17 Nordeste 0 -- -- 11
2019-08-06 21:00:00 19.1 13 Este 18 Este 0 -- -- 11
2019-08-06 20:00:00 22.7 9 Oeste 20 Oeste 0 -- -- 23
2019-08-06 19:00:00 23.9 10 Oeste 24 Oeste 0 -- -- 21
2019-08-06 18:00:00 23.5 12 Oeste 26 Sudoeste 0 -- -- 33
2019-08-06 17:00:00 24.9 14 Sudoeste 32 Oeste 0 -- -- 28
2019-08-06 16:00:00 25 13 Sur 26 Sur 0 -- -- 25
2019-08-06 15:00:00 24.6 13 Oeste 30 Oeste 0 -- -- 36
2019-08-06 14:00:00 23.8 14 Sudoeste 30 Sudoeste 0 -- -- 32
2019-08-06 13:00:00 23 10 Oeste 23 Sudoeste 0 -- -- 24
2019-08-06 12:00:00 23.6 11 Sur 22 Sur 0 -- -- 20
2019-08-06 11:00:00 22.2 9 Este 17 Este 0 -- -- 9
2019-08-06 10:00:00 19 13 Este 17 Este 0 -- -- 10
2019-08-06 09:00:00 14.9 14 Este 24 Este 0 -- -- 11
2019-08-06 08:00:00 10.7 11 Nordeste 26 Este 0 -- -- 11
2019-08-06 07:00:00 10.1 17 Este 21 Este 0 -- -- 14
2019-08-06 06:00:00 7.8 5 Nordeste 15 Este 0 -- -- 22
2019-08-06 05:00:00 9.3 7 Este 22 Nordeste 0 -- -- 31
2019-08-06 04:00:00 7.6 6 Noroeste 15 Norte 0 -- -- 49
2019-08-06 03:00:00 9.3 13 Este 27 Este 0 -- -- 44
2019-08-06 02:00:00 11 17 Este 22 Este 0 -- -- 29
2019-08-06 01:00:00 11.2 19 Este 32 Este 0 -- -- 31
2019-08-06 00:00:00 11.4 23 Este 31 Este 0 -- -- 34
2019-08-05 23:00:00 12.9 21 Este 30 Este 0 -- -- 20
2019-08-05 22:00:00 14.9 21 Este 33 Este 0 -- -- 16
2019-08-05 21:00:00 15.5 25 Este 35 Este 0 -- -- 13
2019-08-05 20:00:00 18.3 24 Este 33 Este 0 -- -- 20
2019-08-05 19:00:00 20.1 20 Este 31 Este 0 -- -- 19
2019-08-05 18:00:00 21.6 16 Este 29 Este 0 -- -- 18
2019-08-05 17:00:00 22.4 13 Sudeste 28 Sudeste 0 -- -- 29
2019-08-05 16:00:00 22 10 Sur 28 Oeste 0 -- -- 48
2019-08-05 15:00:00 22.3 11 Sudoeste 29 Oeste 0 -- -- 44
2019-08-05 14:00:00 21.3 15 Oeste 29 Oeste 0 -- -- 44
2019-08-05 13:00:00 21.5 14 Oeste 23 Oeste 0 -- -- 38
2019-08-05 12:00:00 22.6 13 Este 24 Este 0 -- -- 14
2019-08-05 11:00:00 20.8 12 Este 23 Este 0 -- -- 11
2019-08-05 10:00:00 18.5 15 Este 21 Este 0 -- -- 11
2019-08-05 09:00:00 14.7 3 Sur 21 Nordeste 0 -- -- 13
2019-08-05 08:00:00 6.9 10 Norte 15 Norte 0 -- -- 18
2019-08-05 07:00:00 6 8 Norte 12 Norte 0 -- -- 18
2019-08-05 06:00:00 9.9 9 Este 14 Este 0 -- -- 15
2019-08-05 05:00:00 9.4 3 Este 18 Este 0 -- -- 14
2019-08-05 04:00:00 10.5 10 Este 18 Este 0 -- -- 12
2019-08-05 03:00:00 11.4 11 Este 15 Este 0 -- -- 12
2019-08-05 02:00:00 11.8 11 Este 19 Este 0 -- -- 12
2019-08-05 01:00:00 8.8 9 Norte 13 Norte 0 -- -- 15
2019-08-05 00:00:00 10.5 8 Nordeste 24 Este 0 -- -- 15
2019-08-04 23:00:00 13 15 Este 21 Este 0 -- -- 13
2019-08-04 22:00:00 15.2 13 Este 19 Este 0 -- -- 16
2019-08-04 21:00:00 16.4 7 Nordeste 18 Oeste 0 -- -- 21
2019-08-04 20:00:00 20.1 10 Oeste 21 Noroeste 0 -- -- 32
2019-08-04 19:00:00 22.4 15 Sur 28 Sudoeste 0 -- -- 22
2019-08-04 18:00:00 22.3 11 Oeste 27 Oeste 0 -- -- 30
2019-08-04 17:00:00 22 15 Oeste 26 Oeste 0 -- -- 30
2019-08-04 16:00:00 23 14 Sudoeste 31 Sur 0 -- -- 31
2019-08-04 15:00:00 22.5 16 Sudoeste 35 Sudoeste 0 -- -- 32
2019-08-04 14:00:00 21.9 16 Oeste 28 Sudoeste 0 -- -- 29
2019-08-04 13:00:00 22.3 14 Sudoeste 27 Oeste 0 -- -- 23
2019-08-04 12:00:00 23.1 9 Sur 23 Oeste 0 -- -- 15
2019-08-04 11:00:00 21.9 8 Este 18 Sudeste 0 -- -- 11
2019-08-04 10:00:00 19.6 11 Este 18 Este 0 -- -- 12
2019-08-04 09:00:00 15.1 3 Sur 17 Este 0 -- -- 14
2019-08-04 08:00:00 6.5 7 Norte 14 Nordeste 0 -- -- 22
2019-08-04 07:00:00 6.6 9 Nordeste 13 Nordeste 0 -- -- 23
2019-08-04 06:00:00 7.2 2 Nordeste 10 Este 0 -- -- 25
2019-08-04 05:00:00 9.1 3 Nordeste 8 Norte 0 -- -- 24
2019-08-04 04:00:00 8.1 3 Nordeste 10 Norte 0 -- -- 27
2019-08-04 03:00:00 7.3 5 Nordeste 15 Nordeste 0 -- -- 31
2019-08-04 02:00:00 8.8 8 Este 15 Este 0 -- -- 29
2019-08-04 01:00:00 9.3 3 Norte 15 Nordeste 0 -- -- 27
2019-08-04 00:00:00 10.3 7 Nordeste 16 Este 0 -- -- 26
2019-08-03 23:00:00 13.7 11 Este 17 Este 0 -- -- 22
2019-08-03 22:00:00 14.4 13 Este 16 Este 0 -- -- 23
2019-08-03 21:00:00 16.9 5 Sudoeste 20 Sudoeste 0 -- -- 32
2019-08-03 20:00:00 20.2 8 Oeste 23 Sudoeste 0 -- -- 29
2019-08-03 19:00:00 22.5 12 Sudoeste 31 Sur 0 -- -- 26
2019-08-03 18:00:00 22.3 11 Sudoeste 29 Sudoeste 0 -- -- 22
2019-08-03 17:00:00 21.6 14 Sudoeste 30 Oeste 0 -- -- 26
2019-08-03 16:00:00 21.5 14 Oeste 30 Sudoeste 0 -- -- 28
2019-08-03 15:00:00 21.8 16 Oeste 28 Oeste 0 -- -- 27
2019-08-03 14:00:00 22.1 15 Oeste 28 Sudoeste 0 -- -- 25
2019-08-03 13:00:00 22.2 13 Oeste 26 Oeste 0 -- -- 21
2019-08-03 12:00:00 21.9 9 Oeste 18 Sudoeste 0 -- -- 18
2019-08-03 11:00:00 21.3 8 Este 19 Este 0 -- -- 15
2019-08-03 10:00:00 18.6 13 Este 21 Nordeste 0 -- -- 21
2019-08-03 09:00:00 15.5 12 Este 21 Este 0 -- -- 23
2019-08-03 08:00:00 9.8 8 Nordeste 19 Este 0 -- -- 31
2019-08-03 07:00:00 8.9 8 Norte 14 Nordeste 0 -- -- 33
2019-08-03 06:00:00 9.9 10 Nordeste 21 Este 0 -- -- 26
2019-08-03 05:00:00 11.1 13 Este 19 Este 0 -- -- 26
2019-08-03 04:00:00 10.7 11 Nordeste 18 Este 0 -- -- 24
2019-08-03 03:00:00 11 4 Nordeste 7 Nordeste 0 -- -- 22
2019-08-03 02:00:00 11.1 5 Norte 8 Norte 0 -- -- 23
2019-08-03 01:00:00 11.4 5 Nordeste 10 Norte 0 -- -- 20
2019-08-03 00:00:00 13.1 5 Nordeste 9 Norte 0 -- -- 21
2019-08-02 23:00:00 14.6 10 Nordeste 14 Nordeste 0 -- -- 21
2019-08-02 22:00:00 15.7 9 Nordeste 15 Este 0 -- -- 22
2019-08-02 21:00:00 18.5 8 Sur 16 Sur 0 -- -- 30
2019-08-02 20:00:00 21.5 9 Sudoeste 29 Sudoeste 0 -- -- 29
2019-08-02 19:00:00 22.4 13 Sudoeste 36 Sudoeste 0 -- -- 24
2019-08-02 18:00:00 23.5 12 Sudoeste 27 Sur 0 -- -- 18
2019-08-02 17:00:00 23.1 12 Oeste 26 Noroeste 0 -- -- 20
2019-08-02 16:00:00 23.5 15 Oeste 31 Oeste 0 -- -- 18
2019-08-02 15:00:00 23.4 14 Oeste 30 Sur 0 -- -- 19
2019-08-02 14:00:00 23.8 13 Oeste 29 Oeste 0 -- -- 21
2019-08-02 13:00:00 23.5 14 Oeste 24 Sur 0 -- -- 16
2019-08-02 12:00:00 22.7 7 Oeste 17 Sudoeste 0 -- -- 10
2019-08-02 11:00:00 21.9 9 Sudoeste 15 Este 0 -- -- 9
2019-08-02 10:00:00 20.3 8 Este 16 Este 0 -- -- 10
2019-08-02 09:00:00 17.1 7 Este 13 Este 0 -- -- 12
2019-08-02 08:00:00 8.4 8 Norte 12 Nordeste 0 -- -- 19
2019-08-02 07:00:00 8.8 7 Norte 10 Norte 0 -- -- 19
2019-08-02 06:00:00 9.1 5 Norte 12 Norte 0 -- -- 21
2019-08-02 05:00:00 9.8 7 Norte 12 Norte 0 -- -- 21
2019-08-02 04:00:00 10.3 4 Nordeste 12 Norte 0 -- -- 21
2019-08-02 03:00:00 11.1 2 Nordeste 12 Norte 0 -- -- 17
2019-08-02 02:00:00 11 9 Norte 12 Norte 0 -- -- 14
2019-08-02 01:00:00 10.5 4 Norte 11 Norte 0 -- -- 17
2019-08-02 00:00:00 15.1 6 Este 21 Este 0 -- -- 12
2019-08-01 23:00:00 16.2 15 Este 24 Este 0 -- -- 9
2019-08-01 22:00:00 16.9 16 Este 24 Este 0 -- -- 9
2019-08-01 21:00:00 18.2 14 Este 20 Este 0 -- -- 14
2019-08-01 20:00:00 21.5 6 Oeste 20 Oeste 0 -- -- 30
2019-08-01 19:00:00 22.3 11 Oeste 26 Oeste 0 -- -- 28
2019-08-01 18:00:00 21.9 15 Oeste 27 Oeste 0 -- -- 34
2019-08-01 17:00:00 23.7 10 Sudeste 22 Nordeste 0 -- -- 29
2019-08-01 16:00:00 24.2 13 Sudoeste 28 Sur 0 -- -- 26
2019-08-01 15:00:00 23.5 10 Sudoeste 31 Sudoeste 0 -- -- 23
2019-08-01 14:00:00 22.7 8 Noroeste 23 Oeste 0 -- -- 20
2019-08-01 13:00:00 23.4 9 Este 26 Sudeste 0 -- -- 10
2019-08-01 12:00:00 23.3 17 Este 31 Este 0 -- -- 9
2019-08-01 11:00:00 21.9 9 Sudeste 17 Sudeste 0 -- -- 8
2019-08-01 10:00:00 19.9 8 Este 13 Este 0 -- -- 9
2019-08-01 09:00:00 15.8 4 Este 10 Este 0 -- -- 11
2019-08-01 08:00:00 8.8 6 Norte 11 Norte 0 -- -- 16
2019-08-01 07:00:00 7.7 5 Nordeste 12 Norte 0 -- -- 16
2019-08-01 06:00:00 9.4 7 Nordeste 9 Nordeste 0 -- -- 16
2019-08-01 05:00:00 8.5 7 Norte 10 Norte 0 -- -- 16
2019-08-01 04:00:00 9.5 4 Nordeste 13 Norte 0 -- -- 14
2019-08-01 03:00:00 8.6 5 Nordeste 14 Nordeste 0 -- -- 13
2019-08-01 02:00:00 10.4 6 Norte 12 Norte 0 -- -- 12
2019-08-01 01:00:00 12 8 Nordeste 17 Este 0 -- -- 12
2019-08-01 00:00:00 13 7 Sudeste 24 Este 0 -- -- 9
2019-07-31 23:00:00 14.3 18 Este 28 Este 0 -- -- 8
2019-07-31 22:00:00 14.5 20 Este 30 Este 0 -- -- 7
2019-07-31 21:00:00 16.1 18 Este 31 Este 0 -- -- 7
2019-07-31 20:00:00 20.8 5 Oeste 23 Oeste 0 -- -- 12
2019-07-31 19:00:00 21.2 12 Oeste 24 Oeste 0 -- -- 18
2019-07-31 18:00:00 22.7 8 Sudoeste 30 Sudoeste 0 -- -- 19
2019-07-31 17:00:00 23.1 8 Oeste 26 Sur 0 -- -- 21
2019-07-31 16:00:00 23.1 14 Sur 29 Sur 0 -- -- 28
2019-07-31 15:00:00 23.3 14 Sudoeste 30 Sudoeste 0 -- -- 27
2019-07-31 14:00:00 23.5 10 Noroeste 28 Nordeste 0 -- -- 17
2019-07-31 13:00:00 23.6 16 Nordeste 36 Este 0 -- -- 7
2019-07-31 12:00:00 22 23 Este 34 Este 0 -- -- 7
2019-07-31 11:00:00 20.7 21 Este 31 Sudeste 0 -- -- 7
2019-07-31 10:00:00 19.5 8 Sudoeste 11 Sur 0 -- -- 7
2019-07-31 09:00:00 17.1 3 Norte 15 Este 0 -- -- 9
2019-07-31 08:00:00 13.9 12 Este 20 Este 0 -- -- 8
2019-07-31 07:00:00 11.5 7 Este 18 Este 0 -- -- 12
2019-07-31 06:00:00 8.5 8 Nordeste 15 Norte 0 -- -- 17
2019-07-31 05:00:00 12 6 Sudeste 27 Este 0 -- -- 17
2019-07-31 04:00:00 13.6 23 Este 33 Este 0 -- -- 10
2019-07-31 03:00:00 12.5 8 Este 25 Este 0 -- -- 14
2019-07-31 02:00:00 12.1 19 Este 30 Este 0 -- -- 19
2019-07-31 01:00:00 12.8 22 Este 34 Este 0 -- -- 26
2019-07-31 00:00:00 14.3 15 Este 30 Este 0 -- -- 20
2019-07-30 23:00:00 15.2 17 Este 28 Este 0 -- -- 11
2019-07-30 22:00:00 15.8 20 Este 31 Este 0 -- -- 21
2019-07-30 21:00:00 16.9 17 Este 30 Sudeste 0 -- -- 22
2019-07-30 20:00:00 20 18 Este 33 Este 0 -- -- 20
2019-07-30 19:00:00 22.3 20 Este 35 Este 0 -- -- 20
2019-07-30 18:00:00 23.8 8 Este 36 Este 0 -- -- 15
2019-07-30 17:00:00 22.9 16 Sur 32 Sudeste 0 -- -- 32
2019-07-30 16:00:00 24.5 18 Este 34 Este 0 -- -- 16
2019-07-30 15:00:00 25 12 Sudeste 30 Sudeste 0 -- -- 15
2019-07-30 14:00:00 24.4 17 Este 36 Noroeste 0 -- -- 14
2019-07-30 13:00:00 21.9 6 Norte 27 Sur 0 -- -- 27
2019-07-30 12:00:00 21.1 13 Oeste 30 Este 0 -- -- 24
2019-07-30 11:00:00 20.7 17 Este 29 Este 0 -- -- 18
2019-07-30 10:00:00 18.1 8 Oeste 42 Nordeste 0 -- -- 19
2019-07-30 09:00:00 16.3 24 Nordeste 43 Nordeste 0 -- -- 22
2019-07-30 08:00:00 14 25 Nordeste 44 Nordeste 0 -- -- 23
2019-07-30 07:00:00 12.8 18 Nordeste 32 Norte 0 -- -- 22
2019-07-30 06:00:00 12.7 18 Este 26 Este 0 -- -- 24
2019-07-30 05:00:00 11.2 13 Este 23 Este 0 -- -- 27
2019-07-30 04:00:00 12.8 13 Este 32 Este 0 -- -- 22
2019-07-30 03:00:00 13.1 19 Este 34 Este 0 -- -- 20
2019-07-30 02:00:00 12.6 15 Nordeste 32 Este 0 -- -- 24
2019-07-30 01:00:00 13 21 Este 35 Este 0 -- -- 29
2019-07-30 00:00:00 12.9 23 Este 33 Nordeste 0 -- -- 34
2019-07-29 23:00:00 13.3 15 Este 32 Este 0 -- -- 37
2019-07-29 22:00:00 13.5 19 Este 37 Este 0 -- -- 47
2019-07-29 21:00:00 14.3 25 Este 43 Este 0 -- -- 46
2019-07-29 20:00:00 17.9 24 Este 38 Este 0 -- -- 37
2019-07-29 19:00:00 20.3 12 Oeste 32 Sur 0 -- -- 36
2019-07-29 18:00:00 20.6 22 Sudeste 38 Este 0 -- -- 29
2019-07-29 17:00:00 21.8 23 Este 37 Este 0 -- -- 27
2019-07-29 16:00:00 21.9 22 Este 36 Sudeste 0 -- -- 29
2019-07-29 15:00:00 22.5 19 Este 34 Sudeste 0 -- -- 26
2019-07-29 14:00:00 21.7 19 Este 37 Sudeste 0 -- -- 27
2019-07-29 13:00:00 21.5 22 Sudeste 36 Sudeste 0 -- -- 28
2019-07-29 12:00:00 21 18 Sudeste 32 Sudeste 0 -- -- 25
2019-07-29 11:00:00 20.1 20 Este 32 Este 0 -- -- 32
2019-07-29 10:00:00 18.7 18 Este 26 Sudeste 0 -- -- 33
2019-07-29 09:00:00 16.4 15 Este 24 Este 0 -- -- 33
2019-07-29 08:00:00 12.7 15 Este 23 Este 0 -- -- 40
2019-07-29 07:00:00 12.7 13 Este 23 Este 0 -- -- 34
2019-07-29 06:00:00 10.6 7 Norte 16 Nordeste 0 -- -- 47
2019-07-29 05:00:00 12.4 7 Nordeste 23 Este 0 -- -- 34
2019-07-29 04:00:00 13.1 6 Este 18 Este 0 -- -- 43
2019-07-29 03:00:00 14 11 Este 21 Este 0 -- -- 43
2019-07-29 02:00:00 14.8 13 Este 26 Este 0 -- -- 40
2019-07-29 01:00:00 15.1 15 Este 23 Este 0 -- -- 43
2019-07-29 00:00:00 15.4 17 Este 23 Este 0 -- -- 44
2019-07-28 23:00:00 15.9 19 Este 25 Este 0 -- -- 43
2019-07-28 22:00:00 16.8 14 Este 22 Este 0 -- -- 37
2019-07-28 21:00:00 19 6 Noroeste 17 Oeste 0 -- -- 37
2019-07-28 20:00:00 22.6 11 Sur 24 Sur 0 -- -- 32
2019-07-28 19:00:00 23.5 13 Sur 31 Este 0 -- -- 33
2019-07-28 18:00:00 23.9 13 Sudeste 25 Sur 0 -- -- 36
2019-07-28 17:00:00 24 18 Sur 32 Sur 0 -- -- 38
2019-07-28 16:00:00 24.7 13 Sudeste 28 Sur 0 -- -- 34
2019-07-28 15:00:00 24.5 17 Sur 31 Sur 0 -- -- 39
2019-07-28 14:00:00 26.1 10 Sur 28 Sur 0 -- -- 26
2019-07-28 13:00:00 25.5 12 Sur 25 Sudoeste 0 -- -- 35
2019-07-28 12:00:00 24.4 15 Este 26 Este 0 -- -- 22
2019-07-28 11:00:00 22.9 10 Este 24 Este 0 -- -- 25
2019-07-28 10:00:00 21.8 14 Este 19 Este 0 -- -- 23
2019-07-28 09:00:00 18.8 6 Este 17 Nordeste 0 -- -- 25
2019-07-28 08:00:00 12.6 8 Nordeste 19 Este 0 -- -- 35
2019-07-28 07:00:00 13.5 7 Nordeste 17 Este 0 -- -- 20
2019-07-28 06:00:00 13.8 5 Nordeste 17 Este 0 -- -- 15
2019-07-28 05:00:00 14.8 8 Este 15 Nordeste 0 -- -- 15
2019-07-28 04:00:00 14.9 3 Norte 9 Sudoeste 0 -- -- 19
2019-07-28 03:00:00 18.5 6 Sur 18 Sudoeste 0 -- -- 16
2019-07-28 02:00:00 19.9 7 Sudoeste 15 Sudoeste 0 -- -- 14
2019-07-28 01:00:00 21.2 7 Sur 18 Sudoeste 0 -- -- 13
2019-07-28 00:00:00 22 9 Sudoeste 36 Oeste 0 -- -- 12
2019-07-27 23:00:00 22.8 15 Oeste 35 Noroeste 0 -- -- 14
2019-07-27 22:00:00 23.2 19 Noroeste 38 Noroeste 0 -- -- 15
2019-07-26 11:00:00 -- -- -- -- -- -- -- -- --
2019-07-26 10:00:00 24.3 8 Sudoeste 12 Sudoeste 0 -- -- 11
2019-07-26 09:00:00 22 6 Sudoeste 12 Sudoeste 0 -- -- 13
2019-07-26 08:00:00 18.1 4 Noroeste 9 Norte 0 -- -- 15
2019-07-26 07:00:00 18.5 3 Oeste 18 Sudoeste 0 -- -- 14
2019-07-26 06:00:00 20.2 10 Sudoeste 24 Sudoeste 0 -- -- 16
2019-07-26 05:00:00 17.3 5 Oeste 11 Sudoeste 0 -- -- 13
2019-07-26 04:00:00 15.8 4 Norte 7 Norte 0 -- -- 12
2019-07-26 03:00:00 16.5 3 Norte 8 Norte 0 -- -- 11
2019-07-26 02:00:00 16.1 6 Norte 9 Norte 0 -- -- 11
2019-07-26 01:00:00 16.1 7 Norte 11 Norte 0 -- -- 12
2019-07-26 00:00:00 14.9 10 Norte 12 Norte 0 -- -- 20